sensor_id;sensor_type;location;lat;lon;timestamp;P1;durP1;ratioP1;P2;durP2;ratioP2
32705;SDS011;19094;50.972;3.538;2023-06-10T00:01:33;14.38;;;9.20;;
32705;SDS011;19094;50.972;3.538;2023-06-10T00:04:01;24.13;;;9.73;;
32705;SDS011;19094;50.972;3.538;2023-06-10T00:06:28;15.98;;;9.45;;
32705;SDS011;19094;50.972;3.538;2023-06-10T00:09:00;17.80;;;10.35;;
32705;SDS011;19094;50.972;3.538;2023-06-10T00:11:27;17.00;;;10.02;;
32705;SDS011;19094;50.972;3.538;2023-06-10T00:13:53;14.80;;;9.88;;
32705;SDS011;19094;50.972;3.538;2023-06-10T00:16:19;15.18;;;10.10;;
32705;SDS011;19094;50.972;3.538;2023-06-10T00:18:45;15.60;;;10.73;;
32705;SDS011;19094;50.972;3.538;2023-06-10T00:21:12;16.50;;;10.38;;
32705;SDS011;19094;50.972;3.538;2023-06-10T00:23:38;13.93;;;9.82;;
32705;SDS011;19094;50.972;3.538;2023-06-10T00:26:04;16.02;;;9.95;;
32705;SDS011;19094;50.972;3.538;2023-06-10T00:28:30;14.57;;;9.90;;
32705;SDS011;19094;50.972;3.538;2023-06-10T00:30:55;14.85;;;9.75;;
32705;SDS011;19094;50.972;3.538;2023-06-10T00:33:22;15.20;;;10.15;;
32705;SDS011;19094;50.972;3.538;2023-06-10T00:35:48;16.52;;;10.45;;
32705;SDS011;19094;50.972;3.538;2023-06-10T00:38:13;18.63;;;9.95;;
32705;SDS011;19094;50.972;3.538;2023-06-10T00:40:42;17.88;;;10.43;;
32705;SDS011;19094;50.972;3.538;2023-06-10T00:43:08;15.40;;;9.52;;
32705;SDS011;19094;50.972;3.538;2023-06-10T00:45:34;14.95;;;10.32;;
32705;SDS011;19094;50.972;3.538;2023-06-10T00:48:00;17.05;;;10.43;;
32705;SDS011;19094;50.972;3.538;2023-06-10T00:50:27;21.23;;;11.05;;
32705;SDS011;19094;50.972;3.538;2023-06-10T00:52:56;13.98;;;10.75;;
32705;SDS011;19094;50.972;3.538;2023-06-10T00:55:23;15.23;;;10.52;;
32705;SDS011;19094;50.972;3.538;2023-06-10T00:57:52;14.05;;;9.90;;
32705;SDS011;19094;50.972;3.538;2023-06-10T01:00:18;16.90;;;10.38;;
32705;SDS011;19094;50.972;3.538;2023-06-10T01:02:45;16.33;;;10.40;;
32705;SDS011;19094;50.972;3.538;2023-06-10T01:05:11;14.93;;;10.93;;
32705;SDS011;19094;50.972;3.538;2023-06-10T01:07:43;15.70;;;10.27;;
32705;SDS011;19094;50.972;3.538;2023-06-10T01:10:16;13.90;;;10.75;;
32705;SDS011;19094;50.972;3.538;2023-06-10T01:15:36;16.15;;;11.40;;
32705;SDS011;19094;50.972;3.538;2023-06-10T01:18:04;17.63;;;11.00;;
32705;SDS011;19094;50.972;3.538;2023-06-10T01:20:32;14.27;;;10.43;;
32705;SDS011;19094;50.972;3.538;2023-06-10T01:22:58;16.10;;;11.05;;
32705;SDS011;19094;50.972;3.538;2023-06-10T01:25:29;24.13;;;11.07;;
32705;SDS011;19094;50.972;3.538;2023-06-10T01:33:25;15.27;;;10.17;;
32705;SDS011;19094;50.972;3.538;2023-06-10T01:35:53;18.17;;;11.73;;
32705;SDS011;19094;50.972;3.538;2023-06-10T01:38:22;16.63;;;11.13;;
32705;SDS011;19094;50.972;3.538;2023-06-10T01:40:50;15.13;;;11.00;;
32705;SDS011;19094;50.972;3.538;2023-06-10T01:43:19;20.27;;;11.52;;
32705;SDS011;19094;50.972;3.538;2023-06-10T01:45:46;16.88;;;10.88;;
32705;SDS011;19094;50.972;3.538;2023-06-10T01:48:11;14.93;;;10.75;;
32705;SDS011;19094;50.972;3.538;2023-06-10T01:50:37;16.15;;;11.23;;
32705;SDS011;19094;50.972;3.538;2023-06-10T01:53:03;15.38;;;10.77;;
32705;SDS011;19094;50.972;3.538;2023-06-10T01:55:30;18.45;;;11.45;;
32705;SDS011;19094;50.972;3.538;2023-06-10T01:57:56;14.30;;;10.50;;
32705;SDS011;19094;50.972;3.538;2023-06-10T02:00:21;15.40;;;10.90;;
32705;SDS011;19094;50.972;3.538;2023-06-10T02:02:47;19.48;;;11.10;;
32705;SDS011;19094;50.972;3.538;2023-06-10T02:05:13;16.30;;;10.98;;
32705;SDS011;19094;50.972;3.538;2023-06-10T02:07:38;16.15;;;11.07;;
32705;SDS011;19094;50.972;3.538;2023-06-10T02:10:05;15.85;;;11.02;;
32705;SDS011;19094;50.972;3.538;2023-06-10T02:12:31;18.55;;;11.13;;
32705;SDS011;19094;50.972;3.538;2023-06-10T02:14:57;13.55;;;11.00;;
32705;SDS011;19094;50.972;3.538;2023-06-10T02:17:22;14.38;;;11.13;;
32705;SDS011;19094;50.972;3.538;2023-06-10T02:19:48;20.35;;;11.77;;
32705;SDS011;19094;50.972;3.538;2023-06-10T02:22:20;19.98;;;11.75;;
32705;SDS011;19094;50.972;3.538;2023-06-10T02:24:47;20.55;;;11.32;;
32705;SDS011;19094;50.972;3.538;2023-06-10T02:27:14;18.88;;;11.50;;
32705;SDS011;19094;50.972;3.538;2023-06-10T02:29:40;15.88;;;11.48;;
32705;SDS011;19094;50.972;3.538;2023-06-10T02:32:07;17.92;;;11.30;;
32705;SDS011;19094;50.972;3.538;2023-06-10T02:34:33;19.10;;;12.32;;
32705;SDS011;19094;50.972;3.538;2023-06-10T02:36:59;16.77;;;11.35;;
32705;SDS011;19094;50.972;3.538;2023-06-10T02:39:25;16.48;;;11.73;;
32705;SDS011;19094;50.972;3.538;2023-06-10T02:41:53;21.92;;;12.20;;
32705;SDS011;19094;50.972;3.538;2023-06-10T02:44:18;15.82;;;11.43;;
32705;SDS011;19094;50.972;3.538;2023-06-10T02:46:44;19.83;;;11.35;;
32705;SDS011;19094;50.972;3.538;2023-06-10T02:49:11;19.65;;;12.07;;
32705;SDS011;19094;50.972;3.538;2023-06-10T02:51:37;17.33;;;11.68;;
32705;SDS011;19094;50.972;3.538;2023-06-10T02:54:03;16.23;;;11.20;;
32705;SDS011;19094;50.972;3.538;2023-06-10T02:56:29;22.88;;;12.75;;
32705;SDS011;19094;50.972;3.538;2023-06-10T02:58:56;20.13;;;11.68;;
32705;SDS011;19094;50.972;3.538;2023-06-10T03:01:22;17.15;;;11.52;;
32705;SDS011;19094;50.972;3.538;2023-06-10T03:03:48;15.25;;;11.68;;
32705;SDS011;19094;50.972;3.538;2023-06-10T03:06:15;16.42;;;12.23;;
32705;SDS011;19094;50.972;3.538;2023-06-10T03:08:41;20.35;;;12.27;;
32705;SDS011;19094;50.972;3.538;2023-06-10T03:11:06;16.50;;;11.70;;
32705;SDS011;19094;50.972;3.538;2023-06-10T03:13:32;19.30;;;11.68;;
32705;SDS011;19094;50.972;3.538;2023-06-10T03:15:58;25.42;;;12.02;;
32705;SDS011;19094;50.972;3.538;2023-06-10T03:18:26;16.30;;;12.63;;
32705;SDS011;19094;50.972;3.538;2023-06-10T03:20:53;19.02;;;13.65;;
32705;SDS011;19094;50.972;3.538;2023-06-10T03:23:20;18.90;;;12.48;;
32705;SDS011;19094;50.972;3.538;2023-06-10T03:25:46;21.33;;;12.55;;
32705;SDS011;19094;50.972;3.538;2023-06-10T03:28:12;18.63;;;11.60;;
32705;SDS011;19094;50.972;3.538;2023-06-10T03:30:37;17.50;;;12.63;;
32705;SDS011;19094;50.972;3.538;2023-06-10T03:33:03;17.92;;;13.35;;
32705;SDS011;19094;50.972;3.538;2023-06-10T03:35:32;19.92;;;13.10;;
32705;SDS011;19094;50.972;3.538;2023-06-10T03:37:58;18.35;;;13.27;;
32705;SDS011;19094;50.972;3.538;2023-06-10T03:40:24;26.77;;;13.65;;
32705;SDS011;19094;50.972;3.538;2023-06-10T03:42:49;24.10;;;12.77;;
32705;SDS011;19094;50.972;3.538;2023-06-10T03:45:15;22.02;;;12.43;;
32705;SDS011;19094;50.972;3.538;2023-06-10T03:47:41;20.27;;;12.73;;
32705;SDS011;19094;50.972;3.538;2023-06-10T03:50:08;23.55;;;14.38;;
32705;SDS011;19094;50.972;3.538;2023-06-10T03:52:35;20.35;;;12.75;;
32705;SDS011;19094;50.972;3.538;2023-06-10T03:55:00;20.00;;;13.43;;
32705;SDS011;19094;50.972;3.538;2023-06-10T03:57:26;19.50;;;13.20;;
32705;SDS011;19094;50.972;3.538;2023-06-10T03:59:53;21.00;;;13.38;;
32705;SDS011;19094;50.972;3.538;2023-06-10T04:02:20;20.40;;;13.98;;
32705;SDS011;19094;50.972;3.538;2023-06-10T04:04:46;23.65;;;14.18;;
32705;SDS011;19094;50.972;3.538;2023-06-10T04:07:11;19.13;;;13.35;;
32705;SDS011;19094;50.972;3.538;2023-06-10T04:09:38;24.73;;;14.27;;
32705;SDS011;19094;50.972;3.538;2023-06-10T04:12:04;24.40;;;13.50;;
32705;SDS011;19094;50.972;3.538;2023-06-10T04:14:35;20.15;;;13.43;;
32705;SDS011;19094;50.972;3.538;2023-06-10T04:17:01;20.25;;;14.20;;
32705;SDS011;19094;50.972;3.538;2023-06-10T04:19:27;21.38;;;14.38;;
32705;SDS011;19094;50.972;3.538;2023-06-10T04:21:53;22.85;;;13.60;;
32705;SDS011;19094;50.972;3.538;2023-06-10T04:24:19;21.95;;;13.60;;
32705;SDS011;19094;50.972;3.538;2023-06-10T04:26:44;20.33;;;14.38;;
32705;SDS011;19094;50.972;3.538;2023-06-10T04:29:11;18.63;;;14.23;;
32705;SDS011;19094;50.972;3.538;2023-06-10T04:31:36;22.45;;;14.00;;
32705;SDS011;19094;50.972;3.538;2023-06-10T04:34:02;22.42;;;14.13;;
32705;SDS011;19094;50.972;3.538;2023-06-10T04:36:27;22.88;;;14.00;;
32705;SDS011;19094;50.972;3.538;2023-06-10T04:38:55;27.48;;;14.25;;
32705;SDS011;19094;50.972;3.538;2023-06-10T04:41:20;20.63;;;13.40;;
32705;SDS011;19094;50.972;3.538;2023-06-10T04:43:47;22.33;;;14.15;;
32705;SDS011;19094;50.972;3.538;2023-06-10T04:46:13;23.42;;;14.38;;
32705;SDS011;19094;50.972;3.538;2023-06-10T04:48:38;19.42;;;13.90;;
32705;SDS011;19094;50.972;3.538;2023-06-10T04:51:05;24.30;;;14.48;;
32705;SDS011;19094;50.972;3.538;2023-06-10T04:53:31;22.73;;;14.48;;
32705;SDS011;19094;50.972;3.538;2023-06-10T04:55:56;26.90;;;14.43;;
32705;SDS011;19094;50.972;3.538;2023-06-10T04:58:22;21.80;;;13.68;;
32705;SDS011;19094;50.972;3.538;2023-06-10T05:00:48;22.80;;;13.90;;
32705;SDS011;19094;50.972;3.538;2023-06-10T05:03:15;19.42;;;13.48;;
32705;SDS011;19094;50.972;3.538;2023-06-10T05:05:40;20.83;;;13.98;;
32705;SDS011;19094;50.972;3.538;2023-06-10T05:08:06;21.10;;;14.38;;
32705;SDS011;19094;50.972;3.538;2023-06-10T05:10:32;20.88;;;14.30;;
32705;SDS011;19094;50.972;3.538;2023-06-10T05:12:59;25.83;;;13.88;;
32705;SDS011;19094;50.972;3.538;2023-06-10T05:15:24;22.70;;;14.90;;
32705;SDS011;19094;50.972;3.538;2023-06-10T05:17:50;22.67;;;14.18;;
32705;SDS011;19094;50.972;3.538;2023-06-10T05:20:16;20.33;;;13.90;;
32705;SDS011;19094;50.972;3.538;2023-06-10T05:22:43;23.00;;;14.07;;
32705;SDS011;19094;50.972;3.538;2023-06-10T05:25:09;24.05;;;14.65;;
32705;SDS011;19094;50.972;3.538;2023-06-10T05:27:35;21.10;;;13.25;;
32705;SDS011;19094;50.972;3.538;2023-06-10T05:30:01;21.65;;;14.43;;
32705;SDS011;19094;50.972;3.538;2023-06-10T05:32:28;22.30;;;14.77;;
32705;SDS011;19094;50.972;3.538;2023-06-10T05:34:54;23.90;;;13.98;;
32705;SDS011;19094;50.972;3.538;2023-06-10T05:37:20;22.95;;;14.23;;
32705;SDS011;19094;50.972;3.538;2023-06-10T05:39:45;23.80;;;13.93;;
32705;SDS011;19094;50.972;3.538;2023-06-10T05:42:11;26.73;;;13.77;;
32705;SDS011;19094;50.972;3.538;2023-06-10T05:44:37;18.75;;;13.50;;
32705;SDS011;19094;50.972;3.538;2023-06-10T05:47:02;19.33;;;14.35;;
32705;SDS011;19094;50.972;3.538;2023-06-10T05:49:28;18.55;;;13.70;;
32705;SDS011;19094;50.972;3.538;2023-06-10T05:51:54;24.38;;;14.02;;
32705;SDS011;19094;50.972;3.538;2023-06-10T05:54:21;20.23;;;13.98;;
32705;SDS011;19094;50.972;3.538;2023-06-10T05:56:47;22.23;;;14.82;;
32705;SDS011;19094;50.972;3.538;2023-06-10T05:59:12;23.63;;;13.48;;
32705;SDS011;19094;50.972;3.538;2023-06-10T06:01:38;21.15;;;14.43;;
32705;SDS011;19094;50.972;3.538;2023-06-10T06:04:04;21.17;;;14.18;;
32705;SDS011;19094;50.972;3.538;2023-06-10T06:06:30;21.25;;;13.77;;
32705;SDS011;19094;50.972;3.538;2023-06-10T06:08:55;22.85;;;14.23;;
32705;SDS011;19094;50.972;3.538;2023-06-10T06:11:21;21.73;;;14.55;;
32705;SDS011;19094;50.972;3.538;2023-06-10T06:13:47;20.58;;;13.98;;
32705;SDS011;19094;50.972;3.538;2023-06-10T06:16:13;23.70;;;14.38;;
32705;SDS011;19094;50.972;3.538;2023-06-10T06:18:39;24.27;;;14.27;;
32705;SDS011;19094;50.972;3.538;2023-06-10T06:21:04;20.75;;;14.75;;
32705;SDS011;19094;50.972;3.538;2023-06-10T06:23:30;19.85;;;13.57;;
32705;SDS011;19094;50.972;3.538;2023-06-10T06:25:56;23.65;;;14.30;;
32705;SDS011;19094;50.972;3.538;2023-06-10T06:28:21;22.65;;;14.35;;
32705;SDS011;19094;50.972;3.538;2023-06-10T06:30:47;22.52;;;14.70;;
32705;SDS011;19094;50.972;3.538;2023-06-10T06:33:13;23.88;;;14.73;;
32705;SDS011;19094;50.972;3.538;2023-06-10T06:35:39;25.20;;;14.70;;
32705;SDS011;19094;50.972;3.538;2023-06-10T06:38:05;23.52;;;13.20;;
32705;SDS011;19094;50.972;3.538;2023-06-10T06:40:30;22.02;;;13.68;;
32705;SDS011;19094;50.972;3.538;2023-06-10T06:42:56;18.90;;;14.20;;
32705;SDS011;19094;50.972;3.538;2023-06-10T06:45:22;24.50;;;14.15;;
32705;SDS011;19094;50.972;3.538;2023-06-10T06:47:47;32.00;;;14.18;;
32705;SDS011;19094;50.972;3.538;2023-06-10T06:50:13;20.67;;;14.10;;
32705;SDS011;19094;50.972;3.538;2023-06-10T06:52:39;20.25;;;13.18;;
32705;SDS011;19094;50.972;3.538;2023-06-10T06:55:05;19.27;;;13.35;;
32705;SDS011;19094;50.972;3.538;2023-06-10T06:57:31;20.02;;;13.68;;
32705;SDS011;19094;50.972;3.538;2023-06-10T06:59:57;23.88;;;15.18;;
32705;SDS011;19094;50.972;3.538;2023-06-10T07:02:22;20.65;;;13.48;;
32705;SDS011;19094;50.972;3.538;2023-06-10T07:04:48;19.65;;;14.00;;
32705;SDS011;19094;50.972;3.538;2023-06-10T07:07:14;19.35;;;13.68;;
32705;SDS011;19094;50.972;3.538;2023-06-10T07:09:40;23.52;;;13.73;;
32705;SDS011;19094;50.972;3.538;2023-06-10T07:12:06;20.92;;;13.75;;
32705;SDS011;19094;50.972;3.538;2023-06-10T07:14:32;19.63;;;12.95;;
32705;SDS011;19094;50.972;3.538;2023-06-10T07:16:58;21.02;;;12.75;;
32705;SDS011;19094;50.972;3.538;2023-06-10T07:19:23;17.70;;;12.40;;
32705;SDS011;19094;50.972;3.538;2023-06-10T07:21:49;20.52;;;12.75;;
32705;SDS011;19094;50.972;3.538;2023-06-10T07:24:15;20.17;;;12.60;;
32705;SDS011;19094;50.972;3.538;2023-06-10T07:26:40;24.35;;;12.90;;
32705;SDS011;19094;50.972;3.538;2023-06-10T07:29:06;20.48;;;13.27;;
32705;SDS011;19094;50.972;3.538;2023-06-10T07:31:32;24.65;;;12.73;;
32705;SDS011;19094;50.972;3.538;2023-06-10T07:33:57;22.20;;;13.40;;
32705;SDS011;19094;50.972;3.538;2023-06-10T07:36:23;17.63;;;13.80;;
32705;SDS011;19094;50.972;3.538;2023-06-10T07:38:52;20.52;;;12.35;;
32705;SDS011;19094;50.972;3.538;2023-06-10T07:41:18;24.75;;;12.80;;
32705;SDS011;19094;50.972;3.538;2023-06-10T07:43:44;19.20;;;12.93;;
32705;SDS011;19094;50.972;3.538;2023-06-10T07:46:10;22.20;;;12.25;;
32705;SDS011;19094;50.972;3.538;2023-06-10T07:48:35;22.15;;;12.63;;
32705;SDS011;19094;50.972;3.538;2023-06-10T07:51:01;17.98;;;12.10;;
32705;SDS011;19094;50.972;3.538;2023-06-10T07:53:27;17.55;;;11.98;;
32705;SDS011;19094;50.972;3.538;2023-06-10T07:55:53;19.20;;;11.82;;
32705;SDS011;19094;50.972;3.538;2023-06-10T07:58:18;20.70;;;12.25;;
32705;SDS011;19094;50.972;3.538;2023-06-10T08:00:44;19.80;;;13.20;;
32705;SDS011;19094;50.972;3.538;2023-06-10T08:03:10;21.63;;;12.43;;
32705;SDS011;19094;50.972;3.538;2023-06-10T08:05:36;21.25;;;12.48;;
32705;SDS011;19094;50.972;3.538;2023-06-10T08:08:01;22.35;;;12.70;;
32705;SDS011;19094;50.972;3.538;2023-06-10T08:10:27;19.13;;;11.70;;
32705;SDS011;19094;50.972;3.538;2023-06-10T08:12:53;22.50;;;12.57;;
32705;SDS011;19094;50.972;3.538;2023-06-10T08:15:19;16.48;;;11.63;;
32705;SDS011;19094;50.972;3.538;2023-06-10T08:17:44;21.83;;;12.07;;
32705;SDS011;19094;50.972;3.538;2023-06-10T08:20:10;17.77;;;12.20;;
32705;SDS011;19094;50.972;3.538;2023-06-10T08:22:36;18.98;;;11.20;;
32705;SDS011;19094;50.972;3.538;2023-06-10T08:25:01;19.08;;;11.43;;
32705;SDS011;19094;50.972;3.538;2023-06-10T08:27:27;26.73;;;11.90;;
32705;SDS011;19094;50.972;3.538;2023-06-10T08:29:53;19.50;;;11.98;;
32705;SDS011;19094;50.972;3.538;2023-06-10T08:32:18;14.82;;;11.25;;
32705;SDS011;19094;50.972;3.538;2023-06-10T08:34:44;17.30;;;12.30;;
32705;SDS011;19094;50.972;3.538;2023-06-10T08:37:10;17.40;;;11.88;;
32705;SDS011;19094;50.972;3.538;2023-06-10T08:39:35;24.75;;;11.90;;
32705;SDS011;19094;50.972;3.538;2023-06-10T08:44:58;19.52;;;12.48;;
32705;SDS011;19094;50.972;3.538;2023-06-10T08:47:26;19.75;;;12.48;;
32705;SDS011;19094;50.972;3.538;2023-06-10T08:49:56;16.33;;;12.07;;
32705;SDS011;19094;50.972;3.538;2023-06-10T08:52:28;22.60;;;10.88;;
32705;SDS011;19094;50.972;3.538;2023-06-10T08:55:03;27.50;;;12.43;;
32705;SDS011;19094;50.972;3.538;2023-06-10T08:57:33;22.05;;;11.95;;
32705;SDS011;19094;50.972;3.538;2023-06-10T09:00:00;18.67;;;13.05;;
32705;SDS011;19094;50.972;3.538;2023-06-10T09:02:27;21.60;;;12.13;;
32705;SDS011;19094;50.972;3.538;2023-06-10T09:04:53;23.23;;;11.32;;
32705;SDS011;19094;50.972;3.538;2023-06-10T09:07:22;17.55;;;10.98;;
32705;SDS011;19094;50.972;3.538;2023-06-10T09:09:48;19.95;;;11.70;;
32705;SDS011;19094;50.972;3.538;2023-06-10T09:12:14;17.23;;;11.52;;
32705;SDS011;19094;50.972;3.538;2023-06-10T09:14:41;14.57;;;10.27;;
32705;SDS011;19094;50.972;3.538;2023-06-10T09:17:07;13.95;;;10.27;;
32705;SDS011;19094;50.972;3.538;2023-06-10T09:19:33;18.42;;;9.48;;
32705;SDS011;19094;50.972;3.538;2023-06-10T09:22:00;18.90;;;10.77;;
32705;SDS011;19094;50.972;3.538;2023-06-10T09:24:26;15.52;;;10.73;;
32705;SDS011;19094;50.972;3.538;2023-06-10T09:27:04;25.58;;;9.95;;
32705;SDS011;19094;50.972;3.538;2023-06-10T09:29:40;23.83;;;9.50;;
32705;SDS011;19094;50.972;3.538;2023-06-10T09:32:12;17.65;;;9.57;;
32705;SDS011;19094;50.972;3.538;2023-06-10T09:34:38;13.40;;;9.68;;
32705;SDS011;19094;50.972;3.538;2023-06-10T09:37:05;11.57;;;8.35;;
32705;SDS011;19094;50.972;3.538;2023-06-10T09:39:30;14.15;;;8.70;;
32705;SDS011;19094;50.972;3.538;2023-06-10T09:41:56;14.52;;;9.35;;
32705;SDS011;19094;50.972;3.538;2023-06-10T09:44:22;16.60;;;8.73;;
32705;SDS011;19094;50.972;3.538;2023-06-10T09:46:49;17.40;;;9.02;;
32705;SDS011;19094;50.972;3.538;2023-06-10T09:49:16;11.05;;;7.65;;
32705;SDS011;19094;50.972;3.538;2023-06-10T09:51:52;14.80;;;8.65;;
32705;SDS011;19094;50.972;3.538;2023-06-10T09:54:19;9.60;;;7.35;;
32705;SDS011;19094;50.972;3.538;2023-06-10T09:56:47;14.00;;;7.78;;
32705;SDS011;19094;50.972;3.538;2023-06-10T09:59:13;14.13;;;8.25;;
32705;SDS011;19094;50.972;3.538;2023-06-10T10:01:39;13.55;;;9.52;;
32705;SDS011;19094;50.972;3.538;2023-06-10T10:04:05;12.50;;;8.07;;
32705;SDS011;19094;50.972;3.538;2023-06-10T10:06:31;19.10;;;8.45;;
32705;SDS011;19094;50.972;3.538;2023-06-10T10:08:57;9.30;;;7.82;;
32705;SDS011;19094;50.972;3.538;2023-06-10T10:11:23;12.05;;;8.32;;
32705;SDS011;19094;50.972;3.538;2023-06-10T10:13:51;10.63;;;7.65;;
32705;SDS011;19094;50.972;3.538;2023-06-10T10:16:18;13.30;;;8.15;;
32705;SDS011;19094;50.972;3.538;2023-06-10T10:18:46;13.35;;;8.00;;
32705;SDS011;19094;50.972;3.538;2023-06-10T10:21:18;10.43;;;8.00;;
32705;SDS011;19094;50.972;3.538;2023-06-10T10:24:08;15.27;;;8.10;;
32705;SDS011;19094;50.972;3.538;2023-06-10T10:26:35;16.17;;;8.50;;
32705;SDS011;19094;50.972;3.538;2023-06-10T10:31:58;11.40;;;8.00;;
32705;SDS011;19094;50.972;3.538;2023-06-10T10:37:36;17.98;;;7.95;;
32705;SDS011;19094;50.972;3.538;2023-06-10T10:40:02;12.43;;;7.45;;
32705;SDS011;19094;50.972;3.538;2023-06-10T10:42:28;11.02;;;7.68;;
32705;SDS011;19094;50.972;3.538;2023-06-10T10:44:55;10.75;;;7.70;;
32705;SDS011;19094;50.972;3.538;2023-06-10T10:47:22;12.50;;;8.57;;
32705;SDS011;19094;50.972;3.538;2023-06-10T10:49:51;11.35;;;8.30;;
32705;SDS011;19094;50.972;3.538;2023-06-10T10:52:23;20.80;;;8.63;;
32705;SDS011;19094;50.972;3.538;2023-06-10T10:54:49;13.10;;;7.88;;
32705;SDS011;19094;50.972;3.538;2023-06-10T11:02:17;15.82;;;7.88;;
32705;SDS011;19094;50.972;3.538;2023-06-10T11:04:58;16.85;;;8.32;;
32705;SDS011;19094;50.972;3.538;2023-06-10T11:07:25;17.92;;;9.00;;
32705;SDS011;19094;50.972;3.538;2023-06-10T11:10:07;13.02;;;8.30;;
32705;SDS011;19094;50.972;3.538;2023-06-10T11:15:09;9.55;;;7.63;;
32705;SDS011;19094;50.972;3.538;2023-06-10T11:17:35;14.45;;;8.20;;
32705;SDS011;19094;50.972;3.538;2023-06-10T11:20:00;10.27;;;7.65;;
32705;SDS011;19094;50.972;3.538;2023-06-10T11:22:26;10.25;;;8.00;;
32705;SDS011;19094;50.972;3.538;2023-06-10T11:24:52;12.82;;;8.85;;
32705;SDS011;19094;50.972;3.538;2023-06-10T11:27:18;14.25;;;7.93;;
32705;SDS011;19094;50.972;3.538;2023-06-10T11:29:54;12.82;;;7.57;;
32705;SDS011;19094;50.972;3.538;2023-06-10T11:32:20;16.00;;;7.85;;
32705;SDS011;19094;50.972;3.538;2023-06-10T11:34:51;13.38;;;7.80;;
32705;SDS011;19094;50.972;3.538;2023-06-10T11:37:18;14.98;;;7.85;;
32705;SDS011;19094;50.972;3.538;2023-06-10T11:39:44;11.00;;;8.07;;
32705;SDS011;19094;50.972;3.538;2023-06-10T11:42:10;11.27;;;7.75;;
32705;SDS011;19094;50.972;3.538;2023-06-10T11:44:36;16.30;;;8.30;;
32705;SDS011;19094;50.972;3.538;2023-06-10T11:47:02;15.98;;;8.60;;
32705;SDS011;19094;50.972;3.538;2023-06-10T11:49:28;11.20;;;7.65;;
32705;SDS011;19094;50.972;3.538;2023-06-10T11:51:54;11.00;;;8.15;;
32705;SDS011;19094;50.972;3.538;2023-06-10T11:54:21;13.52;;;7.53;;
32705;SDS011;19094;50.972;3.538;2023-06-10T11:56:47;8.82;;;7.50;;
32705;SDS011;19094;50.972;3.538;2023-06-10T11:59:13;14.77;;;8.18;;
32705;SDS011;19094;50.972;3.538;2023-06-10T12:01:43;18.00;;;8.65;;
32705;SDS011;19094;50.972;3.538;2023-06-10T12:06:41;10.65;;;7.90;;
32705;SDS011;19094;50.972;3.538;2023-06-10T12:11:44;10.88;;;7.82;;
32705;SDS011;19094;50.972;3.538;2023-06-10T12:14:11;28.70;;;9.10;;
32705;SDS011;19094;50.972;3.538;2023-06-10T12:16:37;8.60;;;7.53;;
32705;SDS011;19094;50.972;3.538;2023-06-10T12:19:03;9.38;;;6.68;;
32705;SDS011;19094;50.972;3.538;2023-06-10T12:21:31;12.27;;;7.85;;
32705;SDS011;19094;50.972;3.538;2023-06-10T12:24:10;9.45;;;7.22;;
32705;SDS011;19094;50.972;3.538;2023-06-10T12:26:36;11.65;;;7.72;;
32705;SDS011;19094;50.972;3.538;2023-06-10T12:34:29;17.02;;;7.60;;
32705;SDS011;19094;50.972;3.538;2023-06-10T12:36:56;10.90;;;7.50;;
32705;SDS011;19094;50.972;3.538;2023-06-10T12:39:22;11.45;;;7.45;;
32705;SDS011;19094;50.972;3.538;2023-06-10T12:41:48;14.63;;;8.15;;
32705;SDS011;19094;50.972;3.538;2023-06-10T12:44:14;12.45;;;7.85;;
32705;SDS011;19094;50.972;3.538;2023-06-10T12:46:40;8.98;;;7.55;;
32705;SDS011;19094;50.972;3.538;2023-06-10T12:49:06;11.85;;;7.45;;
32705;SDS011;19094;50.972;3.538;2023-06-10T12:51:31;13.70;;;7.05;;
32705;SDS011;19094;50.972;3.538;2023-06-10T12:53:59;8.88;;;7.18;;
32705;SDS011;19094;50.972;3.538;2023-06-10T12:56:25;16.85;;;7.85;;
32705;SDS011;19094;50.972;3.538;2023-06-10T12:58:50;15.20;;;7.85;;
32705;SDS011;19094;50.972;3.538;2023-06-10T13:01:16;11.45;;;7.57;;
32705;SDS011;19094;50.972;3.538;2023-06-10T13:03:42;13.27;;;6.97;;
32705;SDS011;19094;50.972;3.538;2023-06-10T13:06:07;17.60;;;7.43;;
32705;SDS011;19094;50.972;3.538;2023-06-10T13:08:33;14.18;;;7.35;;
32705;SDS011;19094;50.972;3.538;2023-06-10T13:10:59;7.53;;;6.72;;
32705;SDS011;19094;50.972;3.538;2023-06-10T13:13:25;12.45;;;8.30;;
32705;SDS011;19094;50.972;3.538;2023-06-10T13:15:51;13.65;;;7.85;;
32705;SDS011;19094;50.972;3.538;2023-06-10T13:18:17;15.25;;;7.47;;
32705;SDS011;19094;50.972;3.538;2023-06-10T13:20:45;9.38;;;7.57;;
32705;SDS011;19094;50.972;3.538;2023-06-10T13:23:11;13.88;;;7.30;;
32705;SDS011;19094;50.972;3.538;2023-06-10T13:25:37;13.55;;;7.35;;
32705;SDS011;19094;50.972;3.538;2023-06-10T13:28:02;8.43;;;7.28;;
32705;SDS011;19094;50.972;3.538;2023-06-10T13:30:28;10.32;;;6.72;;
32705;SDS011;19094;50.972;3.538;2023-06-10T13:32:54;11.13;;;7.50;;
32705;SDS011;19094;50.972;3.538;2023-06-10T13:35:20;14.30;;;7.40;;
32705;SDS011;19094;50.972;3.538;2023-06-10T13:37:46;8.27;;;6.97;;
32705;SDS011;19094;50.972;3.538;2023-06-10T13:40:12;10.32;;;7.53;;
32705;SDS011;19094;50.972;3.538;2023-06-10T13:42:38;14.93;;;7.97;;
32705;SDS011;19094;50.972;3.538;2023-06-10T13:45:04;11.82;;;8.30;;
32705;SDS011;19094;50.972;3.538;2023-06-10T13:47:31;12.40;;;7.30;;
32705;SDS011;19094;50.972;3.538;2023-06-10T13:49:56;10.57;;;7.43;;
32705;SDS011;19094;50.972;3.538;2023-06-10T13:52:22;12.07;;;7.50;;
32705;SDS011;19094;50.972;3.538;2023-06-10T13:54:47;13.57;;;7.78;;
32705;SDS011;19094;50.972;3.538;2023-06-10T13:57:13;22.05;;;7.78;;
32705;SDS011;19094;50.972;3.538;2023-06-10T13:59:39;12.88;;;7.93;;
32705;SDS011;19094;50.972;3.538;2023-06-10T14:02:04;12.05;;;7.82;;
32705;SDS011;19094;50.972;3.538;2023-06-10T14:04:31;11.75;;;7.88;;
32705;SDS011;19094;50.972;3.538;2023-06-10T14:06:57;20.80;;;7.75;;
32705;SDS011;19094;50.972;3.538;2023-06-10T14:09:23;13.73;;;7.57;;
32705;SDS011;19094;50.972;3.538;2023-06-10T14:11:48;13.57;;;7.68;;
32705;SDS011;19094;50.972;3.538;2023-06-10T14:14:14;14.10;;;7.32;;
32705;SDS011;19094;50.972;3.538;2023-06-10T14:16:40;13.95;;;8.00;;
32705;SDS011;19094;50.972;3.538;2023-06-10T14:19:05;12.15;;;7.43;;
32705;SDS011;19094;50.972;3.538;2023-06-10T14:21:31;10.57;;;7.95;;
32705;SDS011;19094;50.972;3.538;2023-06-10T14:23:57;13.57;;;7.90;;
32705;SDS011;19094;50.972;3.538;2023-06-10T14:26:22;15.25;;;7.60;;
32705;SDS011;19094;50.972;3.538;2023-06-10T14:28:48;15.82;;;8.88;;
32705;SDS011;19094;50.972;3.538;2023-06-10T14:31:14;13.02;;;8.18;;
32705;SDS011;19094;50.972;3.538;2023-06-10T14:33:41;11.43;;;8.70;;
32705;SDS011;19094;50.972;3.538;2023-06-10T14:36:08;12.55;;;8.02;;
32705;SDS011;19094;50.972;3.538;2023-06-10T14:38:34;10.40;;;7.47;;
32705;SDS011;19094;50.972;3.538;2023-06-10T14:41:00;16.08;;;7.88;;
32705;SDS011;19094;50.972;3.538;2023-06-10T14:43:25;9.05;;;7.63;;
32705;SDS011;19094;50.972;3.538;2023-06-10T14:45:51;14.23;;;7.30;;
32705;SDS011;19094;50.972;3.538;2023-06-10T14:48:17;13.95;;;7.50;;
32705;SDS011;19094;50.972;3.538;2023-06-10T14:50:43;9.85;;;7.65;;
32705;SDS011;19094;50.972;3.538;2023-06-10T14:53:11;10.75;;;7.45;;
32705;SDS011;19094;50.972;3.538;2023-06-10T14:55:37;17.63;;;8.35;;
32705;SDS011;19094;50.972;3.538;2023-06-10T14:58:02;12.68;;;8.50;;
32705;SDS011;19094;50.972;3.538;2023-06-10T15:00:28;9.40;;;7.32;;